Time;durP1;ratioP1;P1;durP2;ratioP2;P2;SDS_P1;SDS_P2;PMS_P1;PMS_P2;Temp;Humidity;BMP_temperature;BMP_pressure;BME280_temperature;BME280_humidity;BME280_pressure;Samples;Min_cycle;Max_cycle;Signal;HPM_P1;HPM_P2
2023/07/19 00:00:16;;;;;;;5.00;1.85;;;17.70;99.90;;;;;;5039140;28;39786;-78
2023/07/19 00:02:42;;;;;;;4.45;2.00;;;17.70;99.90;;;;;;5028109;28;37537;-79
2023/07/19 00:05:09;;;;;;;4.28;1.80;;;17.60;99.90;;;;;;5035987;28;38658;-79
2023/07/19 00:07:36;;;;;;;3.35;1.20;;;17.70;99.90;;;;;;5038897;28;37204;-79
2023/07/19 00:10:04;;;;;;;4.45;1.90;;;17.70;99.90;;;;;;5050908;28;37693;-79
2023/07/19 00:12:32;;;;;;;2.63;1.50;;;17.70;99.90;;;;;;5027830;28;47512;-79
2023/07/19 00:14:58;;;;;;;6.75;2.20;;;17.70;99.90;;;;;;5037741;28;37128;-79
2023/07/19 00:17:25;;;;;;;4.03;1.48;;;17.70;99.90;;;;;;5052141;28;35762;-79
2023/07/19 00:19:51;;;;;;;3.47;1.42;;;17.80;99.90;;;;;;5038132;28;39018;-79
2023/07/19 00:22:17;;;;;;;3.55;1.75;;;17.80;99.90;;;;;;5037335;28;39111;-79
2023/07/19 00:24:43;;;;;;;3.13;1.50;;;17.90;99.90;;;;;;5053014;28;37622;-79
2023/07/19 00:27:10;;;;;;;4.07;1.83;;;17.90;99.90;;;;;;5035521;28;36179;-79
2023/07/19 00:29:36;;;;;;;7.88;2.15;;;17.90;99.90;;;;;;5037413;28;37969;-79
2023/07/19 00:32:02;;;;;;;7.43;1.70;;;17.90;99.90;;;;;;5037128;28;36877;-79
2023/07/19 00:34:28;;;;;;;5.78;1.52;;;17.90;99.90;;;;;;5052144;28;36838;-79
2023/07/19 00:36:56;;;;;;;4.55;1.88;;;17.90;99.90;;;;;;5030203;28;38047;-79
2023/07/19 00:39:22;;;;;;;6.07;1.70;;;17.90;99.90;;;;;;5050725;28;37761;-79
2023/07/19 00:41:48;;;;;;;6.82;1.50;;;17.90;99.90;;;;;;5035026;28;38119;-79
2023/07/19 00:44:14;;;;;;;4.53;1.40;;;17.90;99.90;;;;;;5039801;28;37184;-79
2023/07/19 00:46:41;;;;;;;2.65;1.38;;;17.90;99.90;;;;;;5055179;28;36198;-79
2023/07/19 00:49:10;;;;;;;4.07;1.63;;;17.90;99.90;;;;;;5037224;28;37685;-79
2023/07/19 00:51:37;;;;;;;4.85;1.77;;;17.90;99.90;;;;;;5031917;28;37710;-79
2023/07/19 00:54:05;;;;;;;4.75;1.52;;;17.90;99.90;;;;;;5038164;28;38441;-79
2023/07/19 00:56:32;;;;;;;4.47;1.80;;;17.90;99.90;;;;;;5037489;28;37280;-78
2023/07/19 00:59:01;;;;;;;4.43;1.42;;;17.90;99.90;;;;;;5036361;28;37547;-79
2023/07/19 01:03:57;;;;;;;5.13;1.58;;;17.90;99.90;;;;;;4998756;28;20053;-80
2023/07/19 01:06:23;;;;;;;3.33;1.55;;;17.90;99.90;;;;;;5020040;28;35973;-81
2023/07/19 01:08:50;;;;;;;5.75;1.77;;;18.00;99.90;;;;;;5010031;28;39640;-82
2023/07/19 01:11:16;;;;;;;4.40;1.65;;;17.90;99.90;;;;;;5009072;28;39222;-81
2023/07/19 01:13:54;;;;;;;6.60;1.42;;;17.90;99.90;;;;;;5024858;28;36920;-82
2023/07/19 01:16:21;;;;;;;5.07;1.80;;;17.90;99.90;;;;;;5025153;28;36893;-81
2023/07/19 01:18:48;;;;;;;4.22;1.55;;;17.90;99.90;;;;;;5006691;28;38723;-82
2023/07/19 01:21:14;;;;;;;4.55;1.73;;;17.90;99.90;;;;;;5038338;28;37287;-81
2023/07/19 01:23:40;;;;;;;5.22;1.80;;;17.90;99.90;;;;;;5019155;28;37227;-82
2023/07/19 01:26:06;;;;;;;4.50;1.80;;;17.90;99.90;;;;;;5018187;28;37489;-81
2023/07/19 01:28:33;;;;;;;3.17;1.70;;;17.90;99.90;;;;;;5017533;28;37663;-81
2023/07/19 01:31:05;;;;;;;3.22;1.92;;;17.90;99.90;;;;;;5028082;28;38548;-82
2023/07/19 01:33:32;;;;;;;7.15;2.15;;;17.80;99.90;;;;;;5025223;28;47224;-81
2023/07/19 01:35:58;;;;;;;5.35;1.70;;;17.80;99.90;;;;;;5026748;28;36709;-81
2023/07/19 01:38:24;;;;;;;6.40;2.17;;;17.80;99.90;;;;;;5031865;28;37842;-82
2023/07/19 01:40:50;;;;;;;3.95;1.88;;;17.80;99.90;;;;;;5014182;28;37326;-81
2023/07/19 01:43:16;;;;;;;3.17;1.55;;;17.80;99.90;;;;;;5006334;28;37606;-82
2023/07/19 01:45:43;;;;;;;4.05;1.63;;;17.80;99.90;;;;;;5013336;28;36216;-82
2023/07/19 01:48:09;;;;;;;4.03;1.60;;;17.80;99.90;;;;;;5013706;28;39114;-82
2023/07/19 01:50:35;;;;;;;9.43;2.30;;;17.80;99.90;;;;;;5022546;28;38590;-82
2023/07/19 01:53:02;;;;;;;4.25;1.95;;;17.80;99.90;;;;;;5025721;28;36643;-82
2023/07/19 01:55:28;;;;;;;4.13;1.77;;;17.70;99.90;;;;;;5016802;28;47196;-81
2023/07/19 01:57:54;;;;;;;7.85;1.98;;;17.70;99.90;;;;;;5018905;28;40357;-81
2023/07/19 02:00:20;;;;;;;6.88;1.83;;;17.70;99.90;;;;;;5017915;28;37721;-81
2023/07/19 02:02:46;;;;;;;6.13;1.90;;;17.70;99.90;;;;;;5023369;28;36714;-81
2023/07/19 02:05:12;;;;;;;7.70;1.85;;;17.70;99.90;;;;;;5025927;28;37103;-81
2023/07/19 02:07:39;;;;;;;3.60;1.80;;;17.70;99.90;;;;;;5025336;28;37800;-81
2023/07/19 02:10:05;;;;;;;5.53;2.22;;;17.70;99.90;;;;;;5025880;28;39895;-81
2023/07/19 02:12:31;;;;;;;5.90;2.05;;;17.70;99.90;;;;;;5019834;28;39150;-81
2023/07/19 02:14:57;;;;;;;7.25;2.00;;;17.70;99.90;;;;;;5026846;28;36089;-82
2023/07/19 02:17:23;;;;;;;3.42;1.70;;;17.70;99.90;;;;;;5024596;28;37714;-82
2023/07/19 02:19:49;;;;;;;6.20;2.40;;;17.70;99.90;;;;;;5019363;28;38430;-82
2023/07/19 02:22:16;;;;;;;4.05;2.00;;;17.70;99.90;;;;;;5012373;28;38067;-82
2023/07/19 02:24:42;;;;;;;4.30;2.13;;;17.70;99.90;;;;;;5013195;28;36965;-82
2023/07/19 02:27:08;;;;;;;6.30;2.35;;;17.70;99.90;;;;;;5029315;28;38588;-82
2023/07/19 02:29:34;;;;;;;7.10;1.80;;;17.70;99.90;;;;;;5016731;28;38326;-82
2023/07/19 02:32:00;;;;;;;5.93;1.70;;;17.60;99.90;;;;;;5025797;28;39102;-82
2023/07/19 02:34:26;;;;;;;4.55;2.03;;;17.70;99.90;;;;;;5027323;28;47558;-83
2023/07/19 02:36:53;;;;;;;4.75;1.98;;;17.70;99.90;;;;;;5026904;28;39813;-82
2023/07/19 02:39:20;;;;;;;5.07;2.25;;;17.70;99.90;;;;;;5025885;28;37295;-82
2023/07/19 02:41:46;;;;;;;4.30;1.60;;;17.70;99.90;;;;;;5035427;28;38245;-83
2023/07/19 02:44:12;;;;;;;5.50;2.40;;;17.60;99.90;;;;;;5030437;28;36705;-82
2023/07/19 02:46:38;;;;;;;8.32;2.15;;;17.60;99.90;;;;;;5019945;28;39839;-83
2023/07/19 02:49:05;;;;;;;4.25;2.00;;;17.60;99.90;;;;;;5028512;28;37420;-84
2023/07/19 02:51:32;;;;;;;4.65;2.33;;;17.50;99.90;;;;;;5029746;28;37059;-84
2023/07/19 02:53:58;;;;;;;7.03;2.80;;;17.50;99.90;;;;;;5032605;28;36939;-83
2023/07/19 02:56:24;;;;;;;9.25;2.40;;;17.40;99.90;;;;;;5031563;28;39172;-83
2023/07/19 02:58:50;;;;;;;5.60;2.67;;;17.40;99.90;;;;;;5029903;28;37261;-83
2023/07/19 03:01:16;;;;;;;4.40;2.55;;;17.30;99.90;;;;;;5037845;28;37227;-84
2023/07/19 03:03:42;;;;;;;5.07;2.20;;;17.20;99.90;;;;;;5030576;28;36025;-84
2023/07/19 03:06:11;;;;;;;5.32;2.67;;;17.20;99.90;;;;;;5029745;28;39105;-85
2023/07/19 03:08:38;;;;;;;9.40;2.42;;;17.20;99.90;;;;;;5030594;28;38648;-83
2023/07/19 03:11:08;;;;;;;4.43;2.42;;;17.20;99.90;;;;;;5024884;28;37259;-84
2023/07/19 03:13:35;;;;;;;5.07;2.75;;;17.20;99.90;;;;;;5028851;28;38154;-84
2023/07/19 03:16:01;;;;;;;4.32;2.22;;;17.10;99.90;;;;;;5031050;28;37746;-84
2023/07/19 03:18:28;;;;;;;3.75;2.63;;;17.10;99.90;;;;;;5030511;28;47516;-84
2023/07/19 03:20:59;;;;;;;5.32;2.50;;;17.10;99.90;;;;;;5030966;28;37116;-84
2023/07/19 03:23:26;;;;;;;5.40;3.13;;;17.00;99.90;;;;;;5028120;28;37145;-83
2023/07/19 03:25:57;;;;;;;5.00;2.70;;;17.00;99.90;;;;;;5019772;28;37701;-83
2023/07/19 03:28:25;;;;;;;6.25;2.90;;;17.00;99.90;;;;;;5014857;28;37516;-83
2023/07/19 03:30:54;;;;;;;4.80;2.53;;;17.00;99.90;;;;;;5028796;28;38253;-84
2023/07/19 03:33:24;;;;;;;3.88;2.53;;;17.00;99.90;;;;;;5025667;28;36079;-83
2023/07/19 03:35:51;;;;;;;5.85;2.60;;;17.00;99.90;;;;;;5023848;28;40765;-84
2023/07/19 03:38:20;;;;;;;8.20;2.83;;;17.00;99.90;;;;;;5028584;28;38703;-84
2023/07/19 03:40:46;;;;;;;4.78;2.30;;;17.00;99.90;;;;;;5027746;28;37416;-84
2023/07/19 03:43:12;;;;;;;5.22;2.75;;;17.00;99.90;;;;;;5028435;28;38152;-85
2023/07/19 03:45:41;;;;;;;5.03;2.95;;;17.00;99.90;;;;;;5027662;28;37575;-84
2023/07/19 03:48:08;;;;;;;6.60;3.08;;;17.00;99.90;;;;;;5028060;28;38295;-83
2023/07/19 03:50:34;;;;;;;5.75;3.00;;;17.00;99.90;;;;;;5025261;28;37121;-84
2023/07/19 03:53:01;;;;;;;6.28;2.58;;;17.00;99.90;;;;;;5022337;28;36282;-83
2023/07/19 03:55:28;;;;;;;7.82;2.75;;;17.00;99.90;;;;;;5031257;28;50110;-83
2023/07/19 03:57:54;;;;;;;7.30;3.33;;;17.00;99.90;;;;;;5022915;28;38224;-85
2023/07/19 04:00:20;;;;;;;5.20;2.60;;;17.00;99.90;;;;;;5032087;28;37808;-83
2023/07/19 04:02:46;;;;;;;6.82;3.15;;;17.00;99.90;;;;;;5008854;28;36093;-84
2023/07/19 04:05:12;;;;;;;5.57;2.83;;;17.00;99.90;;;;;;5025030;28;38118;-84
2023/07/19 04:07:38;;;;;;;5.43;3.13;;;17.00;99.90;;;;;;5018096;28;37577;-84
2023/07/19 04:10:05;;;;;;;6.78;3.15;;;17.00;99.90;;;;;;5017535;28;37715;-84
2023/07/19 04:12:31;;;;;;;6.68;2.70;;;17.00;99.90;;;;;;5025447;28;38445;-85
2023/07/19 04:14:57;;;;;;;5.93;3.00;;;17.10;99.90;;;;;;5030874;28;37676;-84
2023/07/19 04:17:23;;;;;;;4.82;3.00;;;17.10;99.90;;;;;;5029292;28;38108;-84
2023/07/19 04:19:50;;;;;;;5.25;2.90;;;17.10;99.90;;;;;;5023407;28;20596;-85
2023/07/19 04:22:17;;;;;;;4.65;3.20;;;17.10;99.90;;;;;;5042724;28;36042;-85
2023/07/19 04:24:43;;;;;;;6.72;3.10;;;17.20;99.90;;;;;;5031971;28;39582;-85
2023/07/19 04:27:10;;;;;;;7.32;3.08;;;17.20;99.90;;;;;;5029513;28;38556;-85
2023/07/19 04:29:36;;;;;;;7.28;3.22;;;17.20;99.90;;;;;;5028583;28;37119;-85
2023/07/19 04:32:02;;;;;;;6.03;2.90;;;17.20;99.90;;;;;;5035812;28;37389;-84
2023/07/19 04:34:29;;;;;;;6.47;3.45;;;17.20;99.90;;;;;;5023711;28;38852;-84
2023/07/19 04:36:55;;;;;;;8.38;2.65;;;17.30;99.90;;;;;;5029670;28;39413;-85
2023/07/19 04:39:21;;;;;;;5.40;2.90;;;17.30;99.90;;;;;;5008946;28;38927;-85
2023/07/19 04:41:47;;;;;;;6.13;3.10;;;17.30;99.90;;;;;;5024710;28;38690;-84
2023/07/19 04:44:13;;;;;;;7.65;3.33;;;17.30;99.90;;;;;;5027547;28;38926;-84
2023/07/19 04:46:39;;;;;;;6.60;3.17;;;17.40;99.90;;;;;;5027564;28;37456;-83
2023/07/19 04:49:05;;;;;;;8.75;2.60;;;17.40;99.90;;;;;;5027472;28;37918;-84
2023/07/19 04:51:31;;;;;;;6.38;3.00;;;17.40;99.90;;;;;;5023952;28;36139;-84
2023/07/19 04:53:58;;;;;;;6.25;2.72;;;17.40;99.90;;;;;;5021257;28;37833;-85
2023/07/19 04:56:24;;;;;;;6.25;2.75;;;17.50;99.90;;;;;;5006191;28;40405;-84
2023/07/19 04:58:50;;;;;;;6.63;3.10;;;17.50;99.90;;;;;;5033701;28;37545;-85
2023/07/19 05:01:17;;;;;;;7.53;3.03;;;17.50;99.90;;;;;;5027802;28;36222;-84
2023/07/19 05:03:43;;;;;;;7.35;3.08;;;17.50;99.90;;;;;;5019709;28;37896;-85
2023/07/19 05:06:09;;;;;;;9.63;3.15;;;17.60;99.90;;;;;;5028760;28;38244;-85
2023/07/19 05:08:37;;;;;;;7.82;3.00;;;17.60;99.90;;;;;;5035724;28;37332;-84
2023/07/19 05:11:03;;;;;;;7.95;3.33;;;17.60;99.90;;;;;;5038778;28;36411;-84
2023/07/19 05:13:29;;;;;;;7.35;3.50;;;17.60;99.90;;;;;;5036488;28;38495;-84
2023/07/19 05:15:56;;;;;;;7.25;2.97;;;17.60;99.90;;;;;;5012263;28;37832;-84
2023/07/19 05:18:22;;;;;;;6.90;3.05;;;17.60;99.90;;;;;;5031560;28;38198;-85
2023/07/19 05:20:48;;;;;;;10.38;3.45;;;17.70;99.90;;;;;;5037461;28;36566;-85
2023/07/19 05:23:14;;;;;;;7.88;2.97;;;17.70;99.90;;;;;;5023104;28;38978;-84
2023/07/19 05:25:41;;;;;;;3.45;2.50;;;17.80;99.90;;;;;;5035852;28;38051;-84
2023/07/19 05:28:07;;;;;;;8.68;3.35;;;17.90;99.90;;;;;;5026667;28;36869;-84
2023/07/19 05:30:33;;;;;;;8.27;3.35;;;17.90;99.90;;;;;;5020957;28;37182;-84
2023/07/19 05:33:00;;;;;;;4.97;2.70;;;17.90;99.90;;;;;;5031266;28;38224;-85
2023/07/19 05:35:26;;;;;;;6.00;2.70;;;17.90;99.90;;;;;;5026239;28;37542;-83
2023/07/19 05:38:12;;;;;;;8.27;3.15;;;18.00;99.90;;;;;;5029099;28;37896;-84
2023/07/19 05:40:39;;;;;;;7.50;3.22;;;18.00;99.90;;;;;;5042530;28;47416;-84
2023/07/19 05:43:05;;;;;;;7.32;2.90;;;18.20;99.90;;;;;;5027633;28;39164;-84
2023/07/19 05:45:31;;;;;;;4.82;2.50;;;18.30;99.90;;;;;;5031275;28;37338;-84
2023/07/19 05:47:57;;;;;;;6.70;2.75;;;18.40;99.90;;;;;;5028021;28;37338;-84
2023/07/19 05:50:23;;;;;;;7.88;2.63;;;18.60;99.90;;;;;;5027685;28;36691;-84
2023/07/19 05:52:49;;;;;;;7.13;2.80;;;18.70;99.90;;;;;;5027524;28;39145;-84
2023/07/19 05:55:15;;;;;;;4.70;2.05;;;18.70;99.90;;;;;;5026514;28;36968;-84
2023/07/19 05:57:41;;;;;;;8.85;3.05;;;18.80;99.90;;;;;;5025325;28;38697;-84
2023/07/19 06:00:24;;;;;;;7.38;2.55;;;18.90;99.90;;;;;;5035730;28;37389;-83
2023/07/19 06:02:52;;;;;;;11.80;3.00;;;19.10;99.90;;;;;;5023841;28;47126;-84
2023/07/19 06:05:18;;;;;;;4.80;1.98;;;19.30;99.90;;;;;;5026903;28;39595;-84
2023/07/19 06:07:46;;;;;;;7.38;2.72;;;19.40;99.90;;;;;;5027542;28;37405;-84
2023/07/19 06:10:13;;;;;;;4.45;2.15;;;19.30;99.90;;;;;;5026624;28;36500;-84
2023/07/19 06:12:43;;;;;;;7.00;2.30;;;19.30;99.90;;;;;;5028182;28;39016;-84
2023/07/19 06:15:09;;;;;;;6.50;2.60;;;19.40;99.90;;;;;;5037126;28;37428;-83
2023/07/19 06:17:36;;;;;;;3.83;2.03;;;19.50;99.90;;;;;;5043110;28;37984;-84
2023/07/19 06:20:04;;;;;;;5.97;2.35;;;19.50;99.90;;;;;;5031345;28;37618;-84
2023/07/19 06:22:31;;;;;;;6.47;2.72;;;19.50;99.90;;;;;;5024985;28;48179;-83
2023/07/19 06:24:58;;;;;;;7.57;2.78;;;19.50;99.90;;;;;;5031117;28;37244;-84
2023/07/19 06:27:25;;;;;;;5.95;2.30;;;19.50;99.90;;;;;;5023629;28;36393;-84
2023/07/19 06:29:51;;;;;;;12.23;2.58;;;19.40;99.90;;;;;;5034693;28;37363;-83
2023/07/19 06:32:17;;;;;;;7.55;2.63;;;19.30;99.90;;;;;;5030433;28;38802;-83
2023/07/19 06:34:43;;;;;;;5.78;2.42;;;19.10;99.90;;;;;;5031028;28;38197;-83
2023/07/19 06:37:09;;;;;;;5.45;2.20;;;19.10;99.90;;;;;;5028446;28;38299;-83
2023/07/19 06:39:36;;;;;;;8.95;2.20;;;19.30;99.90;;;;;;5029460;28;37502;-83
2023/07/19 06:42:02;;;;;;;3.65;2.05;;;19.60;99.90;;;;;;5045709;28;38112;-80
2023/07/19 06:44:28;;;;;;;6.50;2.10;;;20.00;99.90;;;;;;5030438;28;38359;-83
2023/07/19 06:46:54;;;;;;;6.50;3.33;;;20.20;99.90;;;;;;5030629;28;37953;-83
2023/07/19 06:49:20;;;;;;;7.25;2.40;;;20.50;99.90;;;;;;5028492;28;37597;-82
2023/07/19 06:51:48;;;;;;;4.97;2.17;;;20.80;99.90;;;;;;5025895;28;38045;-83
2023/07/19 06:54:14;;;;;;;3.00;1.75;;;21.00;99.90;;;;;;5028878;28;38777;-83
2023/07/19 06:56:40;;;;;;;5.63;2.05;;;21.10;99.90;;;;;;5033959;28;37429;-83
2023/07/19 06:59:06;;;;;;;7.85;2.47;;;20.90;99.90;;;;;;5025671;28;38005;-82
2023/07/19 07:01:32;;;;;;;6.72;1.83;;;20.90;99.90;;;;;;5026806;28;37950;-82
2023/07/19 07:03:58;;;;;;;5.40;2.42;;;20.50;99.90;;;;;;5030291;28;39146;-83
2023/07/19 07:06:25;;;;;;;8.23;2.28;;;20.30;99.90;;;;;;5029927;28;38151;-82
2023/07/19 07:08:51;;;;;;;4.75;1.90;;;20.20;99.90;;;;;;5029082;28;37756;-82
2023/07/19 07:11:17;;;;;;;7.60;2.33;;;20.20;99.90;;;;;;5033643;28;37476;-81
2023/07/19 07:13:43;;;;;;;6.68;2.38;;;20.20;99.90;;;;;;5029325;28;37918;-82
2023/07/19 07:16:11;;;;;;;5.10;1.95;;;20.10;99.90;;;;;;5027997;28;36668;-82
2023/07/19 07:18:38;;;;;;;4.68;2.20;;;20.20;99.90;;;;;;5028414;28;36075;-83
2023/07/19 07:21:04;;;;;;;7.05;2.10;;;20.20;99.90;;;;;;5026202;28;38572;-82
2023/07/19 07:23:31;;;;;;;7.68;2.45;;;20.30;99.90;;;;;;5026729;28;39046;-81
2023/07/19 07:25:57;;;;;;;4.97;2.22;;;20.20;99.90;;;;;;5039019;28;37199;-82
2023/07/19 07:28:23;;;;;;;7.00;2.50;;;20.20;99.90;;;;;;5039605;28;35785;-82
2023/07/19 07:30:49;;;;;;;7.50;2.03;;;20.20;99.90;;;;;;5045202;28;37803;-82
2023/07/19 07:33:19;;;;;;;8.20;2.72;;;20.40;99.90;;;;;;5026409;28;38372;-83
2023/07/19 07:35:46;;;;;;;7.18;2.70;;;20.50;99.90;;;;;;5028080;28;37110;-82
2023/07/19 07:38:12;;;;;;;7.90;2.53;;;20.50;99.90;;;;;;5027638;28;38673;-82
2023/07/19 07:40:38;;;;;;;6.10;2.28;;;20.80;99.90;;;;;;5028662;28;39552;-82
2023/07/19 07:43:04;;;;;;;5.55;2.53;;;21.10;99.90;;;;;;5028095;28;38476;-82
2023/07/19 07:45:30;;;;;;;14.35;7.90;;;21.20;99.90;;;;;;5040750;28;36965;-82
2023/07/19 07:47:56;;;;;;;8.30;5.05;;;21.30;99.90;;;;;;5025100;28;37716;-81
2023/07/19 07:50:24;;;;;;;7.07;2.17;;;21.70;99.90;;;;;;5029207;28;38900;-83
2023/07/19 07:52:50;;;;;;;7.78;2.38;;;21.60;95.90;;;;;;5027815;28;38540;-82
2023/07/19 07:55:16;;;;;;;7.03;1.65;;;21.20;96.60;;;;;;5026690;28;36830;-82
2023/07/19 07:57:42;;;;;;;7.35;2.40;;;21.00;99.90;;;;;;5023873;28;37038;-82
2023/07/19 08:00:11;;;;;;;9.05;2.25;;;20.70;99.90;;;;;;5029603;28;38873;-81
2023/07/19 08:02:38;;;;;;;4.35;1.88;;;20.40;99.90;;;;;;5028154;28;38988;-81
2023/07/19 08:05:04;;;;;;;6.18;2.20;;;20.30;99.90;;;;;;5026948;28;37888;-81
2023/07/19 08:07:31;;;;;;;6.18;2.10;;;20.60;99.90;;;;;;5026211;28;36034;-81
2023/07/19 08:09:57;;;;;;;9.18;2.22;;;20.80;99.90;;;;;;5030056;28;38948;-79
2023/07/19 08:12:24;;;;;;;5.53;2.13;;;21.20;99.90;;;;;;5028808;28;39427;-81
2023/07/19 08:14:50;;;;;;;7.25;2.13;;;21.60;93.80;;;;;;5026930;28;37984;-82
2023/07/19 08:17:16;;;;;;;7.68;2.35;;;21.80;90.60;;;;;;5027780;28;37500;-83
2023/07/19 08:19:43;;;;;;;7.32;2.03;;;22.00;77.10;;;;;;5037583;28;38686;-81
2023/07/19 08:22:24;;;;;;;6.95;2.35;;;22.50;74.80;;;;;;5042307;28;37435;-82
2023/07/19 08:24:51;;;;;;;7.07;1.67;;;22.70;60.10;;;;;;5028003;28;37452;-83
2023/07/19 08:27:17;;;;;;;4.97;1.75;;;22.80;66.20;;;;;;5029295;28;37572;-82
2023/07/19 08:29:43;;;;;;;6.93;1.77;;;22.80;59.30;;;;;;5043880;28;39048;-81
2023/07/19 08:32:09;;;;;;;6.72;1.90;;;22.80;65.80;;;;;;5025130;28;38566;-81
2023/07/19 08:34:35;;;;;;;5.93;1.83;;;22.70;58.60;;;;;;5025061;28;37120;-82
2023/07/19 08:37:01;;;;;;;4.03;1.58;;;22.50;97.80;;;;;;5041297;28;36244;-81
2023/07/19 08:39:28;;;;;;;5.20;2.50;;;22.40;71.50;;;;;;5028813;28;47858;-81
2023/07/19 08:41:54;;;;;;;4.22;1.60;;;22.70;54.60;;;;;;5027242;28;38258;-81
2023/07/19 08:44:23;;;;;;;6.63;1.73;;;22.70;54.90;;;;;;5040596;28;35996;-81
2023/07/19 08:46:49;;;;;;;7.22;2.25;;;22.40;99.90;;;;;;5029481;28;36434;-81
2023/07/19 08:49:18;;;;;;;8.02;2.65;;;21.80;76.20;;;;;;5027816;28;38710;-82
2023/07/19 08:51:46;;;;;;;7.25;1.83;;;21.40;88.80;;;;;;5027307;28;38366;-81
2023/07/19 08:54:13;;;;;;;10.25;2.67;;;21.60;98.70;;;;;;5028554;28;37848;-81
2023/07/19 08:56:42;;;;;;;5.00;1.88;;;22.10;86.60;;;;;;5026084;28;37131;-81
2023/07/19 08:59:09;;;;;;;6.50;1.83;;;22.30;99.90;;;;;;5035929;28;37547;-81
2023/07/19 09:01:35;;;;;;;9.02;2.20;;;22.10;99.90;;;;;;5036464;28;37280;-81
2023/07/19 09:04:07;;;;;;;7.80;2.13;;;21.90;80.50;;;;;;5025885;28;38006;-82
2023/07/19 09:06:33;;;;;;;;;;;21.60;84.70;;;;;;5040507;28;47279;-81
2023/07/19 09:09:01;;;;;;;5.13;2.05;;;21.50;99.90;;;;;;5027313;28;41004;-81
2023/07/19 09:11:27;;;;;;;5.68;1.73;;;21.80;93.40;;;;;;5025995;28;46638;-80
2023/07/19 09:13:55;;;;;;;6.05;1.80;;;21.90;82.20;;;;;;5027885;28;39709;-81
2023/07/19 09:16:29;;;;;;;6.60;1.65;;;21.80;99.90;;;;;;5026475;28;37304;-81
2023/07/19 09:18:57;;;;;;;6.63;1.98;;;21.80;90.90;;;;;;5026749;28;38251;-81
2023/07/19 09:21:44;;;;;;;5.20;2.13;;;22.00;99.90;;;;;;5024196;28;37322;-81
2023/07/19 09:24:11;;;;;;;6.38;2.47;;;22.20;99.90;;;;;;5037713;28;38071;-81
2023/07/19 09:26:47;;;;;;;4.68;2.13;;;21.90;99.90;;;;;;5026908;28;37304;-81
2023/07/19 09:29:13;;;;;;;3.67;1.77;;;21.80;99.90;;;;;;5043413;28;37714;-81
2023/07/19 09:32:15;;;;;;;6.45;2.95;;;21.70;99.90;;;;;;5029467;28;37494;-81
2023/07/19 09:34:41;;;;;;;7.13;2.72;;;21.70;99.90;;;;;;5021427;28;48814;-81
2023/07/19 09:37:07;;;;;;;9.10;2.50;;;21.70;83.20;;;;;;5025609;28;37097;-81
2023/07/19 09:39:37;;;;;;;10.52;2.58;;;21.60;89.80;;;;;;5026245;28;39344;-81
2023/07/19 09:42:04;;;;;;;8.88;2.42;;;21.60;93.90;;;;;;5025947;28;37582;-81
2023/07/19 09:44:32;;;;;;;5.97;2.20;;;21.60;93.30;;;;;;5026265;28;37063;-81
2023/07/19 09:47:01;;;;;;;7.60;2.63;;;21.70;83.40;;;;;;5025710;28;37733;-81
2023/07/19 09:49:27;;;;;;;10.77;2.30;;;21.90;99.90;;;;;;5043639;28;39237;-80
2023/07/19 09:51:56;;;;;;;9.25;2.28;;;22.00;90.50;;;;;;5025030;28;38362;-80
2023/07/19 09:54:25;;;;;;;9.75;2.30;;;22.00;99.90;;;;;;5025057;28;37328;-81
2023/07/19 09:56:51;;;;;;;6.22;2.05;;;22.00;99.90;;;;;;5026716;28;37392;-81
2023/07/19 09:59:27;;;;;;;7.75;2.22;;;21.90;99.90;;;;;;5027839;28;38670;-80
2023/07/19 10:01:54;;;;;;;8.45;2.47;;;21.80;85.20;;;;;;5026029;28;37259;-80
2023/07/19 10:04:27;;;;;;;9.60;2.60;;;21.50;86.90;;;;;;5029771;28;37642;-82
2023/07/19 10:07:09;;;;;;;6.28;2.30;;;21.50;94.10;;;;;;5034880;28;40549;-81
2023/07/19 10:09:41;;;;;;;4.95;2.03;;;21.30;93.40;;;;;;5013486;28;47180;-81
2023/07/19 10:12:16;;;;;;;6.25;2.00;;;21.00;94.00;;;;;;5025589;28;38923;-80
2023/07/19 10:15:03;;;;;;;5.28;1.77;;;20.80;99.30;;;;;;5041725;28;37455;-80
2023/07/19 10:17:37;;;;;;;8.48;2.55;;;20.70;99.90;;;;;;5021825;28;48623;-81
2023/07/19 10:20:14;;;;;;;5.95;2.17;;;20.70;99.90;;;;;;5027541;28;39108;-81
2023/07/19 10:23:08;;;;;;;9.85;2.42;;;20.50;99.90;;;;;;5026193;28;48928;-83
2023/07/19 10:25:51;;;;;;;11.80;3.05;;;20.40;99.90;;;;;;5012447;28;47186;-83
2023/07/19 10:28:30;;;;;;;7.07;2.40;;;20.10;99.90;;;;;;5024324;28;36408;-83
2023/07/19 10:30:58;;;;;;;8.50;2.80;;;20.10;99.90;;;;;;5036501;28;37644;-82
2023/07/19 10:33:26;;;;;;;5.38;2.55;;;20.60;99.90;;;;;;5026023;28;38343;-82
2023/07/19 10:36:05;;;;;;;9.48;2.80;;;21.00;99.90;;;;;;5024470;28;38788;-84
2023/07/19 10:38:31;;;;;;;6.15;2.40;;;21.20;99.90;;;;;;5025004;28;47308;-82
2023/07/19 10:40:58;;;;;;;7.03;2.17;;;21.10;99.90;;;;;;5025925;28;37672;-82
2023/07/19 10:43:26;;;;;;;6.00;2.10;;;21.00;99.90;;;;;;5041965;28;37140;-82
2023/07/19 10:45:53;;;;;;;7.82;2.38;;;21.10;99.90;;;;;;5025195;28;40173;-82
2023/07/19 10:48:24;;;;;;;4.43;2.10;;;21.00;99.90;;;;;;5026350;28;37330;-81
2023/07/19 10:50:50;;;;;;;4.90;2.13;;;21.20;99.90;;;;;;5023204;28;37700;-82
2023/07/19 10:53:16;;;;;;;7.72;2.15;;;21.20;99.90;;;;;;5027435;28;38164;-81
2023/07/19 10:55:44;;;;;;;9.30;2.53;;;21.20;99.90;;;;;;5024940;28;37710;-82
2023/07/19 10:58:12;;;;;;;5.05;2.00;;;21.30;96.80;;;;;;5024629;28;36194;-81
2023/07/19 11:00:39;;;;;;;9.48;2.42;;;21.20;99.90;;;;;;5025235;28;37983;-82
2023/07/19 11:03:07;;;;;;;6.80;2.17;;;21.20;99.90;;;;;;5031425;28;37623;-82
2023/07/19 11:05:40;;;;;;;6.47;2.08;;;20.80;99.90;;;;;;5028475;28;37030;-84
2023/07/19 11:08:06;;;;;;;9.30;2.25;;;20.50;99.90;;;;;;5028292;28;36223;-83
2023/07/19 11:10:32;;;;;;;7.70;2.22;;;20.10;99.90;;;;;;5028405;28;38734;-83
2023/07/19 11:12:58;;;;;;;5.85;1.75;;;19.70;99.90;;;;;;5031139;28;38161;-84
2023/07/19 11:15:27;;;;;;;4.53;1.67;;;19.60;99.90;;;;;;5028351;28;36864;-84
2023/07/19 11:17:57;;;;;;;5.95;2.08;;;19.80;99.90;;;;;;5033129;28;39227;-82
2023/07/19 11:20:32;;;;;;;5.65;2.00;;;19.90;99.90;;;;;;5044932;28;38007;-82
2023/07/19 11:23:05;;;;;;;6.55;2.40;;;20.00;99.90;;;;;;5030507;28;38264;-83
2023/07/19 11:25:32;;;;;;;6.05;1.50;;;20.20;99.90;;;;;;5028368;28;48068;-82
2023/07/19 11:27:58;;;;;;;4.28;1.83;;;20.50;99.90;;;;;;5029256;28;37151;-83
2023/07/19 11:30:38;;;;;;;6.07;1.83;;;20.60;99.90;;;;;;5028706;28;37824;-83
2023/07/19 11:33:06;;;;;;;6.00;2.28;;;20.60;99.90;;;;;;5027238;28;37333;-82
2023/07/19 11:35:33;;;;;;;5.40;1.92;;;20.70;99.90;;;;;;5027735;28;38582;-82
2023/07/19 11:38:00;;;;;;;10.38;2.28;;;20.90;91.60;;;;;;5029077;28;36316;-82
2023/07/19 11:40:26;;;;;;;6.10;2.00;;;20.80;99.90;;;;;;5026085;28;38883;-82
2023/07/19 11:42:53;;;;;;;5.03;2.50;;;20.90;99.90;;;;;;5028781;28;37308;-82
2023/07/19 11:45:23;;;;;;;5.05;1.90;;;20.90;99.90;;;;;;5023529;28;37691;-81
2023/07/19 11:47:51;;;;;;;5.80;1.77;;;20.80;99.90;;;;;;5033233;28;37473;-84
2023/07/19 11:50:18;;;;;;;5.93;2.20;;;20.80;99.90;;;;;;5015021;28;39799;-82
2023/07/19 11:52:47;;;;;;;5.60;1.90;;;20.70;95.50;;;;;;5027505;28;38316;-82
2023/07/19 11:55:14;;;;;;;4.80;1.85;;;20.70;90.40;;;;;;5028817;28;38677;-82
2023/07/19 11:57:42;;;;;;;3.55;1.60;;;20.70;98.80;;;;;;5029372;28;36979;-80
2023/07/19 12:00:10;;;;;;;3.53;1.45;;;20.70;99.90;;;;;;5027596;28;37556;-80
2023/07/19 12:02:37;;;;;;;5.93;2.13;;;20.70;99.90;;;;;;5028125;28;39092;-81
2023/07/19 12:05:05;;;;;;;3.83;1.77;;;20.80;99.90;;;;;;5027958;28;37262;-80
2023/07/19 12:07:32;;;;;;;6.47;2.10;;;21.20;94.80;;;;;;5027634;28;48754;-81
2023/07/19 12:10:02;;;;;;;6.07;2.15;;;21.20;99.90;;;;;;5028254;28;39057;-80
2023/07/19 12:12:28;;;;;;;5.88;1.55;;;21.20;99.90;;;;;;5028103;28;38590;-80
2023/07/19 12:14:54;;;;;;;23.42;2.97;;;21.10;99.90;;;;;;5027109;28;37017;-80
2023/07/19 12:17:20;;;;;;;16.25;2.08;;;21.30;93.00;;;;;;5027955;28;37393;-80
2023/07/19 12:19:46;;;;;;;5.30;1.73;;;21.60;99.90;;;;;;5029501;28;38843;-80
2023/07/19 12:22:12;;;;;;;3.60;1.70;;;21.70;99.90;;;;;;5027085;28;38618;-82
2023/07/19 12:24:38;;;;;;;6.60;1.83;;;21.40;99.90;;;;;;5028347;28;37872;-81
2023/07/19 12:27:04;;;;;;;7.22;2.10;;;21.00;83.20;;;;;;5026923;28;36028;-80
2023/07/19 12:29:31;;;;;;;6.20;2.17;;;21.00;90.90;;;;;;5026460;28;37477;-81
2023/07/19 12:31:57;;;;;;;9.68;2.20;;;21.30;91.80;;;;;;5029456;28;38254;-81
2023/07/19 12:34:23;;;;;;;8.32;2.42;;;21.70;99.90;;;;;;5027473;28;38465;-81
2023/07/19 12:36:50;;;;;;;10.95;2.03;;;21.80;99.90;;;;;;5027507;28;37187;-81
2023/07/19 12:39:21;;;;;;;4.03;1.67;;;21.90;99.90;;;;;;5026315;28;38061;-80
2023/07/19 12:41:48;;;;;;;16.58;2.80;;;21.90;99.90;;;;;;5026877;28;38212;-79
2023/07/19 12:44:14;;;;;;;11.00;1.90;;;21.80;99.90;;;;;;5034055;28;37311;-80
2023/07/19 12:46:41;;;;;;;8.38;2.00;;;21.60;99.90;;;;;;5020279;28;37111;-77
2023/07/19 12:49:07;;;;;;;7.80;2.40;;;21.60;99.90;;;;;;5026076;28;39698;-80